Lake Fork, ID (83635)

6:58 AM MDT on August 05, 2015 (GMT -0600)
McCall | | Change Station
CLOSE
Current Station
Airport
Location: McCall,
Elevation: 5020 ft
Nearby Weather Stations
Active Advisory: Fire Weather Warning

Elev 5020 ft 44.89 °N, 116.10 °W | Updated 7 minutes ago

Overcast
Overcast
57 °F
Feels Like 57 °F
N
4
Wind Variable Wind from NE

Today
High -- | Low -- °F
--% Chance of Precip.
Yesterday
High -- | Low -- °F
Precip. -- in
6:34 AM 9:05 PM
Waning Gibbous, 67% visible
Pressure 29.90 in
Visibility 10.0 miles
Clouds Overcast 8000 ft
Dew Point 49 °F
Humidity 74%
Rainfall 0.00 in
Snow Depth Not available.
UV 0 out of 12
Pollen 4.20 out of 12
Air Quality Not available.
Flu Activity Not available.
METAR KMYL 051251Z AUTO 05003KT 10SM -RA OVC080 14/09 A3004 RMK AO2 RAB21 SLP124 P0000 T01390094

More Conditions Fewer Conditions

Pressure 29.90 in
Visibility 10.0 miles
Clouds Overcast 8000 ft
Dew Point 49 °F
Humidity 74%
Rainfall 0.00 in
Snow Depth Not available.
UV 0 out of 12
Pollen 4.20 out of 12
Air Quality Not available.
Flu Activity Not available.
METAR KMYL 051251Z AUTO 05003KT 10SM -RA OVC080 14/09 A3004 RMK AO2 RAB21 SLP124 P0000 T01390094

More Conditions Fewer Conditions

10-Day Weather Forecast

×

Almanac

Astronomy

Aug. 05, 2015 Rise Set
Actual Time
Civil Twilight
Nautical Twilight
Astronomical Twilight
Moon
Length of Visible Light
Length of Day
Tomorrow will be .
, % of the Moon is Illuminated

Today's Extremes

State Highs State Lows

Community

WunderPhotos

Upload Photos

1,844,175 photos uploaded!

WunderBlogs® & News

Nearby

Air Quality

  Air Quality AQ Index Pollutant
Not available.

Snow Depth

Station Depth Elevation

Earthquake Activity

City Distance Mag. Time & Date
Minimum magnitude displayed is 2.5.

Coastal Water Temperatures

Place Temperature

Stations

Nearby Weather Stations

Station Location Temp. Windchill Dew Point Humidity Wind Precip. Elev Updated Type
                   
Fire Weather Warning
Statement as of 3:17 PM MDT on August 04, 2015

... Red flag warning for lightning now in effect from 6 am MDT
Wednesday morning to 7 PM MDT Wednesday evening for the northern
Boise blm... western Payette National Forest... Treasure valley
blm... western Twin Falls blm and Vale blm... which are fire weather
zones 400... 401... 420... 424 and 637...

* thunderstorms... isolated coverage overnight... then increasing in
coverage /to scattered/ after sunrise.

* Outflow winds... gusts up to 50 mph are possible.

Precautionary/preparedness actions...

A red flag warning means that critical fire weather conditions
are either occurring now... or will shortly.




L